createdAt,value
2018-05-17T00:01:56.265Z,12.20
2018-05-17T00:05:58.935Z,12.10
2018-05-17T00:10:01.575Z,12.10
2018-05-17T00:14:04.211Z,12.10
2018-05-17T00:18:07.618Z,12.10
2018-05-17T00:22:10.222Z,12.00
2018-05-17T00:26:13.636Z,12.00
2018-05-17T00:30:16.301Z,12.00
2018-05-17T00:34:18.941Z,12.00
2018-05-17T00:38:21.636Z,12.00
2018-05-17T00:42:24.299Z,12.00
2018-05-17T00:46:26.935Z,12.00
2018-05-17T00:50:30.348Z,12.00
2018-05-17T00:54:33.813Z,11.90
2018-05-17T00:58:36.452Z,11.90
2018-05-17T01:02:39.065Z,11.90
2018-05-17T01:06:41.713Z,11.90
2018-05-17T01:10:45.114Z,11.90
2018-05-17T01:14:47.765Z,11.80
2018-05-17T01:18:50.481Z,11.80
2018-05-17T01:22:53.129Z,11.80
2018-05-17T01:26:55.776Z,11.80
2018-05-17T01:30:59.181Z,11.70
2018-05-17T01:35:02.672Z,11.70
2018-05-17T01:39:05.317Z,11.70
2018-05-17T01:43:07.963Z,11.60
2018-05-17T01:47:10.613Z,11.70
2018-05-17T01:51:13.288Z,11.70
2018-05-17T01:55:15.928Z,11.60
2018-05-17T01:59:19.308Z,11.60
2018-05-17T02:03:22.762Z,11.60
2018-05-17T02:07:25.403Z,11.50
2018-05-17T02:11:28.053Z,11.60
2018-05-17T02:15:30.949Z,11.50
2018-05-17T02:19:33.561Z,11.50
2018-05-17T02:23:36.206Z,11.50
2018-05-17T02:27:38.875Z,11.50
2018-05-17T02:31:41.509Z,11.40
2018-05-17T02:35:44.159Z,11.40
2018-05-17T02:39:47.539Z,11.40
2018-05-17T02:43:50.180Z,11.30
2018-05-17T02:47:52.828Z,11.30
2018-05-17T02:51:55.482Z,11.30
2018-05-17T02:55:58.116Z,11.20
2018-05-17T03:00:01.549Z,11.20
2018-05-17T03:04:04.210Z,11.20
2018-05-17T03:08:07.679Z,11.10
2018-05-17T03:12:10.335Z,11.10
2018-05-17T03:16:12.984Z,11.10
2018-05-17T03:20:15.643Z,11.00
2018-05-17T03:24:18.283Z,11.00
2018-05-17T03:28:21.696Z,11.00
2018-05-17T03:32:24.336Z,10.90
2018-05-17T03:36:26.983Z,10.90
2018-05-17T03:40:29.588Z,10.90
2018-05-17T03:44:32.239Z,10.90
2018-05-17T03:48:35.648Z,10.90
2018-05-17T03:52:39.064Z,10.80
2018-05-17T03:56:41.796Z,10.70
2018-05-17T04:00:56.232Z,10.90
2018-05-17T04:05:10.760Z,10.80
2018-05-17T04:09:13.384Z,10.80
2018-05-17T04:13:16.027Z,10.80
2018-05-17T04:17:18.673Z,10.80
2018-05-17T04:21:21.275Z,10.80
2018-05-17T04:25:23.920Z,10.80
2018-05-17T04:29:27.328Z,10.90
2018-05-17T04:33:29.969Z,10.80
2018-05-17T04:37:32.671Z,10.90
2018-05-17T04:41:35.275Z,10.90
2018-05-17T04:45:38.683Z,10.90
2018-05-17T04:49:42.092Z,10.90
2018-05-17T04:53:45.503Z,10.90
2018-05-17T04:57:48.964Z,10.90
2018-05-17T05:01:51.577Z,10.90
2018-05-17T05:05:54.220Z,10.90
2018-05-17T05:09:56.867Z,10.90
2018-05-17T05:14:00.272Z,10.90
2018-05-17T05:18:02.953Z,10.80
2018-05-17T05:22:05.628Z,10.80
2018-05-17T05:26:08.335Z,10.80
2018-05-17T05:30:11.032Z,10.70
2018-05-17T05:34:14.466Z,10.70
2018-05-17T05:38:17.110Z,10.60
2018-05-17T05:42:19.722Z,10.70
2018-05-17T05:46:23.153Z,10.60
2018-05-17T05:50:25.815Z,10.50
2018-05-17T05:54:29.228Z,10.60
2018-05-17T05:58:32.641Z,10.60
2018-05-17T06:02:35.309Z,10.50
2018-05-17T06:06:38.720Z,10.70
2018-05-17T06:10:42.133Z,10.70
2018-05-17T06:14:45.536Z,10.70
2018-05-17T06:18:48.947Z,10.80
2018-05-17T06:22:52.320Z,10.80
2018-05-17T06:26:54.976Z,10.80
2018-05-17T06:30:57.625Z,10.90
2018-05-17T06:35:01.036Z,10.90
2018-05-17T06:39:05.273Z,10.90
2018-05-17T06:43:07.937Z,10.90
2018-05-17T06:47:11.353Z,10.90
2018-05-17T06:51:14.764Z,11.00
2018-05-17T06:55:18.175Z,11.00
2018-05-17T06:59:20.816Z,10.90
2018-05-17T07:03:23.434Z,11.00
2018-05-17T07:07:26.845Z,11.00
2018-05-17T07:11:30.243Z,11.00
2018-05-17T07:15:33.704Z,11.10
2018-05-17T07:19:36.386Z,11.10
2018-05-17T07:23:39.054Z,11.20
2018-05-17T07:27:41.696Z,11.20
2018-05-17T07:31:44.374Z,11.30
2018-05-17T07:35:47.020Z,11.40
2018-05-17T07:39:49.664Z,11.50
2018-05-17T07:43:52.280Z,11.60
2018-05-17T07:47:55.698Z,11.70
2018-05-17T07:51:58.403Z,11.60
2018-05-17T07:56:01.050Z,11.70
2018-05-17T08:00:04.462Z,11.70
2018-05-17T08:04:07.839Z,11.80
2018-05-17T08:08:11.288Z,11.80
2018-05-17T08:12:13.932Z,11.90
2018-05-17T08:16:16.588Z,11.90
2018-05-17T08:20:19.234Z,12.10
2018-05-17T08:28:29.710Z,12.60
2018-05-17T08:32:32.352Z,12.80
2018-05-17T08:36:35.130Z,13.00
2018-05-17T08:40:37.696Z,13.00
2018-05-17T08:44:40.318Z,13.10
2018-05-17T08:48:42.988Z,13.20
2018-05-17T08:52:46.421Z,13.40
2018-05-17T08:56:49.084Z,13.40
2018-05-17T09:00:52.546Z,13.50
2018-05-17T09:04:55.191Z,13.40
2018-05-17T09:08:58.598Z,13.40
2018-05-17T09:13:01.235Z,13.40
2018-05-17T09:17:03.880Z,13.40
2018-05-17T09:21:07.389Z,13.50
2018-05-17T09:25:10.099Z,13.50
2018-05-17T09:29:12.775Z,13.60
2018-05-17T09:33:15.419Z,13.70
2018-05-17T09:37:18.071Z,13.80
2018-05-17T09:41:20.822Z,13.80
2018-05-17T09:45:23.467Z,13.80
2018-05-17T09:49:26.107Z,13.90
2018-05-17T09:53:29.516Z,14.10
2018-05-17T09:57:32.156Z,14.00
2018-05-17T10:01:34.776Z,14.10
2018-05-17T10:05:38.187Z,14.30
2018-05-17T10:09:41.593Z,14.40
2018-05-17T10:13:45.009Z,14.40
2018-05-17T10:17:48.412Z,14.60
2018-05-17T10:21:51.904Z,14.60
2018-05-17T10:25:54.626Z,14.60
2018-05-17T10:29:57.285Z,14.70
2018-05-17T10:33:59.920Z,14.70
2018-05-17T10:38:02.541Z,14.60
2018-05-17T10:42:05.275Z,14.70
2018-05-17T10:46:08.660Z,14.80
2018-05-17T10:50:12.062Z,14.90
2018-05-17T10:54:14.711Z,14.80
2018-05-17T10:58:17.320Z,14.90
2018-05-17T11:02:19.968Z,15.00
2018-05-17T11:06:22.612Z,15.10
2018-05-17T11:10:25.257Z,15.10
2018-05-17T11:14:28.008Z,15.10
2018-05-17T11:18:31.395Z,15.10
2018-05-17T11:22:34.089Z,15.10
2018-05-17T11:26:36.733Z,15.20
2018-05-17T11:30:39.423Z,15.20
2018-05-17T11:34:42.031Z,15.20
2018-05-17T11:38:44.679Z,15.30
2018-05-17T11:42:47.319Z,15.40
2018-05-17T11:46:49.981Z,15.40
2018-05-17T11:50:52.627Z,15.50
2018-05-17T11:54:56.052Z,15.70
2018-05-17T11:58:58.695Z,15.60
2018-05-17T12:03:02.065Z,15.80
2018-05-17T12:07:04.716Z,15.90
2018-05-17T12:11:08.120Z,16.20
2018-05-17T12:15:11.496Z,16.30
2018-05-17T12:19:14.136Z,16.30
2018-05-17T12:23:16.770Z,16.40
2018-05-17T12:27:19.417Z,16.50
2018-05-17T12:31:22.061Z,16.60
2018-05-17T12:35:24.715Z,16.70
2018-05-17T12:39:27.364Z,16.80
2018-05-17T12:43:30.007Z,16.80
2018-05-17T12:47:32.675Z,16.90
2018-05-17T12:51:35.345Z,17.10
2018-05-17T12:55:37.983Z,17.20
2018-05-17T12:59:40.640Z,17.20
2018-05-17T13:03:43.341Z,17.30
2018-05-17T13:07:46.001Z,17.40
2018-05-17T13:11:48.616Z,17.60
2018-05-17T13:15:51.280Z,17.80
2018-05-17T13:19:53.929Z,17.80
2018-05-17T13:23:57.339Z,18.00
2018-05-17T13:28:00.763Z,18.10
2018-05-17T13:32:03.379Z,18.00
2018-05-17T13:36:06.788Z,18.00
2018-05-17T13:40:09.473Z,18.00
2018-05-17T13:44:12.125Z,17.90
2018-05-17T13:48:15.537Z,17.80
2018-05-17T13:52:18.144Z,17.70
2018-05-17T13:56:20.791Z,17.60
2018-05-17T14:00:23.672Z,17.50
2018-05-17T14:04:26.323Z,17.40
2018-05-17T14:08:28.985Z,17.30
2018-05-17T14:12:31.600Z,17.30
2018-05-17T14:16:34.243Z,17.20
2018-05-17T14:20:36.927Z,17.10
2018-05-17T14:24:39.588Z,16.80
2018-05-17T14:28:42.204Z,16.80
2018-05-17T14:32:45.607Z,16.70
2018-05-17T14:36:48.306Z,16.70
2018-05-17T14:40:51.712Z,16.60
2018-05-17T14:44:55.116Z,16.50
2018-05-17T14:48:58.485Z,16.40
2018-05-17T14:53:01.130Z,16.30
2018-05-17T14:57:03.768Z,16.20
2018-05-17T15:01:06.488Z,16.20
2018-05-17T15:05:09.096Z,16.10
2018-05-17T15:09:11.715Z,16.00
2018-05-17T15:13:14.372Z,15.80
2018-05-17T15:17:17.014Z,15.80
2018-05-17T15:21:20.460Z,15.70
2018-05-17T15:25:23.100Z,15.60
2018-05-17T15:29:25.708Z,15.70
2018-05-17T15:33:28.357Z,15.70
2018-05-17T15:37:31.000Z,15.60
2018-05-17T15:41:34.471Z,15.60
2018-05-17T15:45:37.100Z,15.60
2018-05-17T15:49:40.476Z,15.60
2018-05-17T15:53:43.124Z,15.60
2018-05-17T15:57:45.757Z,15.60
2018-05-17T16:01:48.408Z,15.60
2018-05-17T16:05:51.076Z,15.40
2018-05-17T16:09:53.694Z,15.30
2018-05-17T16:13:56.337Z,15.30
2018-05-17T16:17:59.066Z,15.30
2018-05-17T16:22:01.705Z,15.30
2018-05-17T16:26:05.146Z,15.20
2018-05-17T16:30:07.787Z,15.20
2018-05-17T16:34:10.488Z,15.20
2018-05-17T16:38:13.899Z,15.10
2018-05-17T16:42:17.315Z,15.00
2018-05-17T16:46:20.735Z,14.90
2018-05-17T16:50:23.396Z,14.90
2018-05-17T16:54:26.837Z,14.60
2018-05-17T16:58:29.513Z,14.60
2018-05-17T17:02:32.137Z,14.60
2018-05-17T17:06:34.784Z,14.60
2018-05-17T17:10:37.433Z,14.50
2018-05-17T17:14:40.080Z,14.50
2018-05-17T17:18:42.781Z,14.40
2018-05-17T17:22:45.439Z,14.40
2018-05-17T17:26:48.092Z,14.30
2018-05-17T17:30:50.754Z,14.30
2018-05-17T17:34:53.395Z,14.20
2018-05-17T17:38:56.803Z,14.10
2018-05-17T17:43:00.238Z,14.10
2018-05-17T17:47:02.886Z,14.10
2018-05-17T17:51:05.565Z,14.00
2018-05-17T17:55:08.268Z,14.00
2018-05-17T17:59:11.736Z,13.90
2018-05-17T18:03:14.343Z,13.90
2018-05-17T18:07:16.991Z,13.90
2018-05-17T18:11:19.623Z,13.90
2018-05-17T18:15:22.268Z,13.80
2018-05-17T18:19:24.885Z,13.80
2018-05-17T18:23:27.588Z,13.80
2018-05-17T18:27:30.244Z,13.70
2018-05-17T18:31:32.883Z,13.70
2018-05-17T18:35:36.297Z,13.60
2018-05-17T18:39:39.666Z,13.60
2018-05-17T18:43:42.314Z,13.50
2018-05-17T18:47:44.966Z,13.60
2018-05-17T18:51:47.615Z,13.60
2018-05-17T18:55:50.270Z,13.50
2018-05-17T18:59:52.875Z,13.50
2018-05-17T19:03:55.503Z,13.60
2018-05-17T19:07:58.144Z,13.50
2018-05-17T19:12:00.784Z,13.50
2018-05-17T19:16:03.441Z,13.50
2018-05-17T19:20:06.136Z,13.50
2018-05-17T19:24:08.770Z,13.50
2018-05-17T19:28:12.182Z,13.40
2018-05-17T19:32:14.870Z,13.40
2018-05-17T19:36:17.512Z,13.40
2018-05-17T19:40:20.162Z,13.30
2018-05-17T19:44:22.804Z,13.30
2018-05-17T19:48:25.448Z,13.30
2018-05-17T19:52:28.150Z,13.20
2018-05-17T19:56:30.763Z,13.20
2018-05-17T20:00:33.402Z,13.20
2018-05-17T20:04:36.042Z,13.20
2018-05-17T20:08:38.680Z,13.20
2018-05-17T20:12:41.341Z,13.20
2018-05-17T20:16:44.716Z,13.10
2018-05-17T20:20:48.151Z,13.10
2018-05-17T20:24:50.799Z,13.00
2018-05-17T20:28:53.461Z,13.00
2018-05-17T20:32:56.116Z,13.00
2018-05-17T20:36:58.761Z,13.00
2018-05-17T20:41:01.401Z,12.90
2018-05-17T20:45:04.860Z,12.90
2018-05-17T20:49:07.541Z,12.80
2018-05-17T20:53:10.148Z,12.80
2018-05-17T20:57:12.795Z,12.80
2018-05-17T21:01:15.494Z,12.70
2018-05-17T21:05:18.184Z,12.60
2018-05-17T21:09:20.981Z,12.50
2018-05-17T21:13:23.693Z,12.50
2018-05-17T21:17:26.341Z,12.50
2018-05-17T21:21:28.972Z,12.50
2018-05-17T21:25:31.617Z,12.40
2018-05-17T21:29:34.256Z,12.40
2018-05-17T21:33:37.655Z,12.40
2018-05-17T21:37:40.344Z,12.40
2018-05-17T21:41:43.021Z,12.40
2018-05-17T21:45:45.720Z,12.30
2018-05-17T21:49:48.362Z,12.30
2018-05-17T21:53:51.796Z,12.20
2018-05-17T21:57:54.440Z,12.20
2018-05-17T22:01:57.849Z,12.10
2018-05-17T22:06:01.261Z,12.20
2018-05-17T22:10:04.626Z,12.10
2018-05-17T22:14:07.267Z,12.10
2018-05-17T22:18:09.913Z,12.10
2018-05-17T22:22:12.652Z,12.00
2018-05-17T22:26:15.314Z,12.00
2018-05-17T22:30:18.801Z,12.00
2018-05-17T22:34:21.457Z,11.90
2018-05-17T22:38:24.101Z,12.00
2018-05-17T22:42:27.509Z,11.90
2018-05-17T22:46:30.976Z,11.80
2018-05-17T22:50:35.200Z,11.80
2018-05-17T22:54:37.846Z,11.70
2018-05-17T22:58:40.484Z,11.80
2018-05-17T23:02:43.146Z,11.70
2018-05-17T23:06:45.752Z,11.60
2018-05-17T23:10:48.444Z,11.60
2018-05-17T23:14:51.090Z,11.60
2018-05-17T23:18:53.736Z,11.60
2018-05-17T23:22:56.381Z,11.50
2018-05-17T23:26:58.994Z,11.50
2018-05-17T23:31:01.642Z,11.50
2018-05-17T23:35:04.275Z,11.50
2018-05-17T23:39:06.973Z,11.40
2018-05-17T23:43:09.620Z,11.40
2018-05-17T23:47:12.223Z,11.40
2018-05-17T23:51:14.920Z,11.40
2018-05-17T23:55:17.611Z,11.40
2018-05-17T23:59:20.253Z,11.30
